sensor_id;sensor_type;location;lat;lon;timestamp;P1;durP1;ratioP1;P2;durP2;ratioP2
12288;SDS011;6207;49.308;7.336;2023-03-21T00:00:40;9.60;;;8.67;;
12288;SDS011;6207;49.308;7.336;2023-03-21T00:03:09;9.90;;;8.97;;
12288;SDS011;6207;49.308;7.336;2023-03-21T00:05:39;9.40;;;8.70;;
12288;SDS011;6207;49.308;7.336;2023-03-21T00:08:07;9.73;;;8.93;;
12288;SDS011;6207;49.308;7.336;2023-03-21T00:10:34;9.27;;;8.50;;
12288;SDS011;6207;49.308;7.336;2023-03-21T00:13:09;9.60;;;8.73;;
12288;SDS011;6207;49.308;7.336;2023-03-21T00:15:39;10.13;;;9.17;;
12288;SDS011;6207;49.308;7.336;2023-03-21T00:18:29;10.20;;;9.17;;
12288;SDS011;6207;49.308;7.336;2023-03-21T00:23:50;10.70;;;9.70;;
12288;SDS011;6207;49.308;7.336;2023-03-21T00:26:16;9.10;;;8.50;;
12288;SDS011;6207;49.308;7.336;2023-03-21T00:28:43;9.87;;;8.97;;
12288;SDS011;6207;49.308;7.336;2023-03-21T00:31:10;9.67;;;8.80;;
12288;SDS011;6207;49.308;7.336;2023-03-21T00:33:36;9.37;;;8.77;;
12288;SDS011;6207;49.308;7.336;2023-03-21T00:36:06;10.00;;;8.73;;
12288;SDS011;6207;49.308;7.336;2023-03-21T00:38:35;9.77;;;8.80;;
12288;SDS011;6207;49.308;7.336;2023-03-21T00:41:03;9.73;;;8.93;;
12288;SDS011;6207;49.308;7.336;2023-03-21T00:43:46;9.53;;;8.73;;
12288;SDS011;6207;49.308;7.336;2023-03-21T00:46:13;9.50;;;8.70;;
12288;SDS011;6207;49.308;7.336;2023-03-21T00:48:40;9.50;;;8.90;;
12288;SDS011;6207;49.308;7.336;2023-03-21T00:51:10;9.43;;;8.63;;
12288;SDS011;6207;49.308;7.336;2023-03-21T00:53:46;9.33;;;8.63;;
12288;SDS011;6207;49.308;7.336;2023-03-21T00:56:13;8.77;;;8.07;;
12288;SDS011;6207;49.308;7.336;2023-03-21T00:58:39;9.17;;;8.27;;
12288;SDS011;6207;49.308;7.336;2023-03-21T01:01:06;9.30;;;8.53;;
12288;SDS011;6207;49.308;7.336;2023-03-21T01:03:34;9.13;;;8.43;;
12288;SDS011;6207;49.308;7.336;2023-03-21T01:06:08;8.70;;;8.10;;
12288;SDS011;6207;49.308;7.336;2023-03-21T01:08:40;9.43;;;8.63;;
12288;SDS011;6207;49.308;7.336;2023-03-21T01:11:25;9.10;;;8.20;;
12288;SDS011;6207;49.308;7.336;2023-03-21T01:13:53;13.53;;;9.00;;
12288;SDS011;6207;49.308;7.336;2023-03-21T01:16:36;9.17;;;8.27;;
12288;SDS011;6207;49.308;7.336;2023-03-21T01:19:04;9.67;;;8.73;;
12288;SDS011;6207;49.308;7.336;2023-03-21T01:21:37;8.73;;;7.97;;
12288;SDS011;6207;49.308;7.336;2023-03-21T01:24:04;9.23;;;8.53;;
12288;SDS011;6207;49.308;7.336;2023-03-21T01:26:32;9.13;;;8.43;;
12288;SDS011;6207;49.308;7.336;2023-03-21T01:28:58;9.53;;;8.63;;
12288;SDS011;6207;49.308;7.336;2023-03-21T01:31:25;10.03;;;8.97;;
12288;SDS011;6207;49.308;7.336;2023-03-21T01:33:52;8.87;;;8.17;;
12288;SDS011;6207;49.308;7.336;2023-03-21T01:36:20;7.97;;;7.33;;
12288;SDS011;6207;49.308;7.336;2023-03-21T01:38:50;8.73;;;7.83;;
12288;SDS011;6207;49.308;7.336;2023-03-21T01:44:11;8.27;;;7.57;;
12288;SDS011;6207;49.308;7.336;2023-03-21T01:46:50;10.30;;;8.07;;
12288;SDS011;6207;49.308;7.336;2023-03-21T01:49:42;8.57;;;7.87;;
12288;SDS011;6207;49.308;7.336;2023-03-21T01:52:14;8.60;;;7.93;;
12288;SDS011;6207;49.308;7.336;2023-03-21T01:55:06;8.70;;;7.90;;
12288;SDS011;6207;49.308;7.336;2023-03-21T01:57:39;9.53;;;7.73;;
12288;SDS011;6207;49.308;7.336;2023-03-21T02:00:32;7.53;;;6.83;;
12288;SDS011;6207;49.308;7.336;2023-03-21T02:02:59;7.40;;;6.80;;
12288;SDS011;6207;49.308;7.336;2023-03-21T02:08:29;8.60;;;7.73;;
12288;SDS011;6207;49.308;7.336;2023-03-21T02:11:05;8.80;;;8.00;;
12288;SDS011;6207;49.308;7.336;2023-03-21T02:13:35;8.20;;;7.40;;
12288;SDS011;6207;49.308;7.336;2023-03-21T02:16:12;8.03;;;7.43;;
12288;SDS011;6207;49.308;7.336;2023-03-21T02:18:56;7.80;;;7.07;;
12288;SDS011;6207;49.308;7.336;2023-03-21T02:21:59;12.80;;;7.67;;
12288;SDS011;6207;49.308;7.336;2023-03-21T02:24:54;8.23;;;7.47;;
12288;SDS011;6207;49.308;7.336;2023-03-21T02:27:51;8.03;;;7.30;;
12288;SDS011;6207;49.308;7.336;2023-03-21T02:33:29;8.77;;;7.67;;
12288;SDS011;6207;49.308;7.336;2023-03-21T02:39:04;7.70;;;6.90;;
12288;SDS011;6207;49.308;7.336;2023-03-21T02:44:26;7.90;;;6.70;;
12288;SDS011;6207;49.308;7.336;2023-03-21T02:47:02;7.20;;;6.60;;
12288;SDS011;6207;49.308;7.336;2023-03-21T02:49:41;8.40;;;7.10;;
12288;SDS011;6207;49.308;7.336;2023-03-21T02:52:20;7.63;;;6.90;;
12288;SDS011;6207;49.308;7.336;2023-03-21T02:55:05;8.50;;;7.33;;
12288;SDS011;6207;49.308;7.336;2023-03-21T02:57:40;7.47;;;6.87;;
12288;SDS011;6207;49.308;7.336;2023-03-21T03:00:10;11.00;;;7.67;;
12288;SDS011;6207;49.308;7.336;2023-03-21T03:02:43;7.30;;;6.70;;
12288;SDS011;6207;49.308;7.336;2023-03-21T03:05:15;7.83;;;7.23;;
12288;SDS011;6207;49.308;7.336;2023-03-21T03:10:30;8.40;;;7.70;;
12288;SDS011;6207;49.308;7.336;2023-03-21T03:13:53;7.90;;;7.13;;
12288;SDS011;6207;49.308;7.336;2023-03-21T03:16:24;9.93;;;7.17;;
12288;SDS011;6207;49.308;7.336;2023-03-21T03:19:03;7.47;;;6.70;;
12288;SDS011;6207;49.308;7.336;2023-03-21T03:21:44;7.70;;;7.00;;
12288;SDS011;6207;49.308;7.336;2023-03-21T03:24:19;7.03;;;6.43;;
12288;SDS011;6207;49.308;7.336;2023-03-21T03:29:24;8.53;;;6.40;;
12288;SDS011;6207;49.308;7.336;2023-03-21T03:34:30;9.40;;;7.37;;
12288;SDS011;6207;49.308;7.336;2023-03-21T03:37:05;9.67;;;7.03;;
12288;SDS011;6207;49.308;7.336;2023-03-21T03:39:45;8.80;;;6.60;;
12288;SDS011;6207;49.308;7.336;2023-03-21T03:42:18;7.83;;;6.70;;
12288;SDS011;6207;49.308;7.336;2023-03-21T03:44:54;11.53;;;7.57;;
12288;SDS011;6207;49.308;7.336;2023-03-21T03:50:28;9.33;;;7.07;;
12288;SDS011;6207;49.308;7.336;2023-03-21T03:55:43;9.80;;;6.40;;
12288;SDS011;6207;49.308;7.336;2023-03-21T03:58:11;7.93;;;7.00;;
12288;SDS011;6207;49.308;7.336;2023-03-21T04:00:50;8.37;;;6.57;;
12288;SDS011;6207;49.308;7.336;2023-03-21T04:03:18;9.43;;;6.50;;
12288;SDS011;6207;49.308;7.336;2023-03-21T04:05:45;8.10;;;7.27;;
12288;SDS011;6207;49.308;7.336;2023-03-21T04:08:13;7.33;;;6.60;;
12288;SDS011;6207;49.308;7.336;2023-03-21T04:10:40;7.50;;;6.77;;
12288;SDS011;6207;49.308;7.336;2023-03-21T04:13:08;8.17;;;6.90;;
12288;SDS011;6207;49.308;7.336;2023-03-21T04:15:35;8.30;;;6.93;;
12288;SDS011;6207;49.308;7.336;2023-03-21T04:18:02;8.80;;;7.20;;
12288;SDS011;6207;49.308;7.336;2023-03-21T04:20:29;10.00;;;7.30;;
12288;SDS011;6207;49.308;7.336;2023-03-21T04:23:03;9.13;;;7.23;;
12288;SDS011;6207;49.308;7.336;2023-03-21T04:25:34;9.20;;;7.13;;
12288;SDS011;6207;49.308;7.336;2023-03-21T04:28:05;8.30;;;7.13;;
12288;SDS011;6207;49.308;7.336;2023-03-21T04:30:32;12.40;;;8.00;;
12288;SDS011;6207;49.308;7.336;2023-03-21T04:32:59;8.57;;;7.53;;
12288;SDS011;6207;49.308;7.336;2023-03-21T04:35:26;8.70;;;7.50;;
12288;SDS011;6207;49.308;7.336;2023-03-21T04:37:53;11.03;;;8.03;;
12288;SDS011;6207;49.308;7.336;2023-03-21T04:40:21;9.57;;;7.70;;
12288;SDS011;6207;49.308;7.336;2023-03-21T04:42:49;9.20;;;7.23;;
12288;SDS011;6207;49.308;7.336;2023-03-21T04:45:16;8.90;;;7.43;;
12288;SDS011;6207;49.308;7.336;2023-03-21T04:47:43;8.37;;;7.10;;
12288;SDS011;6207;49.308;7.336;2023-03-21T04:50:10;10.17;;;7.47;;
12288;SDS011;6207;49.308;7.336;2023-03-21T04:52:38;12.43;;;7.90;;
12288;SDS011;6207;49.308;7.336;2023-03-21T04:55:05;9.87;;;7.50;;
12288;SDS011;6207;49.308;7.336;2023-03-21T04:57:38;8.67;;;7.57;;
12288;SDS011;6207;49.308;7.336;2023-03-21T05:00:05;14.23;;;8.00;;
12288;SDS011;6207;49.308;7.336;2023-03-21T05:02:36;11.57;;;7.87;;
12288;SDS011;6207;49.308;7.336;2023-03-21T05:05:04;11.10;;;7.50;;
12288;SDS011;6207;49.308;7.336;2023-03-21T05:07:31;8.53;;;7.60;;
12288;SDS011;6207;49.308;7.336;2023-03-21T05:09:59;8.43;;;7.33;;
12288;SDS011;6207;49.308;7.336;2023-03-21T05:12:27;8.60;;;7.67;;
12288;SDS011;6207;49.308;7.336;2023-03-21T05:14:54;8.83;;;7.90;;
12288;SDS011;6207;49.308;7.336;2023-03-21T05:17:21;9.17;;;8.27;;
12288;SDS011;6207;49.308;7.336;2023-03-21T05:19:50;9.77;;;8.70;;
12288;SDS011;6207;49.308;7.336;2023-03-21T05:22:18;9.70;;;8.40;;
12288;SDS011;6207;49.308;7.336;2023-03-21T05:24:45;9.27;;;8.30;;
12288;SDS011;6207;49.308;7.336;2023-03-21T05:27:16;9.13;;;8.23;;
12288;SDS011;6207;49.308;7.336;2023-03-21T05:30:01;9.20;;;8.40;;
12288;SDS011;6207;49.308;7.336;2023-03-21T05:32:32;11.47;;;8.87;;
12288;SDS011;6207;49.308;7.336;2023-03-21T05:34:59;11.90;;;9.67;;
12288;SDS011;6207;49.308;7.336;2023-03-21T05:37:26;11.63;;;10.27;;
12288;SDS011;6207;49.308;7.336;2023-03-21T05:39:54;13.53;;;12.23;;
12288;SDS011;6207;49.308;7.336;2023-03-21T05:42:21;15.60;;;11.80;;
12288;SDS011;6207;49.308;7.336;2023-03-21T05:44:48;10.13;;;9.10;;
12288;SDS011;6207;49.308;7.336;2023-03-21T05:47:15;9.67;;;8.70;;
12288;SDS011;6207;49.308;7.336;2023-03-21T05:49:43;10.20;;;9.20;;
12288;SDS011;6207;49.308;7.336;2023-03-21T05:52:10;10.50;;;9.50;;
12288;SDS011;6207;49.308;7.336;2023-03-21T05:54:37;10.37;;;9.03;;
12288;SDS011;6207;49.308;7.336;2023-03-21T05:57:04;10.63;;;9.20;;
12288;SDS011;6207;49.308;7.336;2023-03-21T05:59:31;10.20;;;9.27;;
12288;SDS011;6207;49.308;7.336;2023-03-21T06:01:58;11.27;;;9.27;;
12288;SDS011;6207;49.308;7.336;2023-03-21T06:04:25;11.37;;;10.23;;
12288;SDS011;6207;49.308;7.336;2023-03-21T06:06:52;12.43;;;9.63;;
12288;SDS011;6207;49.308;7.336;2023-03-21T06:09:19;12.03;;;10.47;;
12288;SDS011;6207;49.308;7.336;2023-03-21T06:11:48;11.37;;;9.90;;
12288;SDS011;6207;49.308;7.336;2023-03-21T06:14:18;10.93;;;9.87;;
12288;SDS011;6207;49.308;7.336;2023-03-21T06:16:45;11.40;;;10.30;;
12288;SDS011;6207;49.308;7.336;2023-03-21T06:19:12;11.10;;;9.80;;
12288;SDS011;6207;49.308;7.336;2023-03-21T06:21:39;12.53;;;10.27;;
12288;SDS011;6207;49.308;7.336;2023-03-21T06:24:06;10.87;;;9.70;;
12288;SDS011;6207;49.308;7.336;2023-03-21T06:26:33;10.53;;;9.53;;
12288;SDS011;6207;49.308;7.336;2023-03-21T06:28:59;10.53;;;9.37;;
12288;SDS011;6207;49.308;7.336;2023-03-21T06:31:26;9.97;;;9.17;;
12288;SDS011;6207;49.308;7.336;2023-03-21T06:33:53;10.13;;;9.20;;
12288;SDS011;6207;49.308;7.336;2023-03-21T06:36:20;10.97;;;9.97;;
12288;SDS011;6207;49.308;7.336;2023-03-21T06:38:46;13.00;;;10.20;;
12288;SDS011;6207;49.308;7.336;2023-03-21T06:41:13;11.13;;;10.13;;
12288;SDS011;6207;49.308;7.336;2023-03-21T06:43:41;11.13;;;10.07;;
12288;SDS011;6207;49.308;7.336;2023-03-21T06:46:08;12.10;;;10.00;;
12288;SDS011;6207;49.308;7.336;2023-03-21T06:48:35;11.13;;;9.97;;
12288;SDS011;6207;49.308;7.336;2023-03-21T06:51:02;12.70;;;11.37;;
12288;SDS011;6207;49.308;7.336;2023-03-21T06:53:30;12.33;;;10.97;;
12288;SDS011;6207;49.308;7.336;2023-03-21T06:56:00;11.47;;;10.33;;
12288;SDS011;6207;49.308;7.336;2023-03-21T06:58:26;11.60;;;10.30;;
12288;SDS011;6207;49.308;7.336;2023-03-21T07:00:53;11.50;;;10.37;;
12288;SDS011;6207;49.308;7.336;2023-03-21T07:03:20;12.03;;;10.80;;
12288;SDS011;6207;49.308;7.336;2023-03-21T07:05:48;13.73;;;10.83;;
12288;SDS011;6207;49.308;7.336;2023-03-21T07:08:15;12.37;;;11.10;;
12288;SDS011;6207;49.308;7.336;2023-03-21T07:10:43;11.83;;;10.80;;
12288;SDS011;6207;49.308;7.336;2023-03-21T07:13:11;11.40;;;10.20;;
12288;SDS011;6207;49.308;7.336;2023-03-21T07:15:39;10.77;;;9.63;;
12288;SDS011;6207;49.308;7.336;2023-03-21T07:18:07;10.47;;;9.67;;
12288;SDS011;6207;49.308;7.336;2023-03-21T07:20:34;10.83;;;9.73;;
12288;SDS011;6207;49.308;7.336;2023-03-21T07:23:03;12.70;;;11.23;;
12288;SDS011;6207;49.308;7.336;2023-03-21T07:25:30;12.53;;;11.23;;
12288;SDS011;6207;49.308;7.336;2023-03-21T07:27:57;11.67;;;10.57;;
12288;SDS011;6207;49.308;7.336;2023-03-21T07:30:24;12.20;;;11.10;;
12288;SDS011;6207;49.308;7.336;2023-03-21T07:32:51;11.73;;;10.57;;
12288;SDS011;6207;49.308;7.336;2023-03-21T07:35:18;11.43;;;10.37;;
12288;SDS011;6207;49.308;7.336;2023-03-21T07:37:45;11.43;;;10.53;;
12288;SDS011;6207;49.308;7.336;2023-03-21T07:40:12;12.20;;;11.10;;
12288;SDS011;6207;49.308;7.336;2023-03-21T07:42:39;12.57;;;11.27;;
12288;SDS011;6207;49.308;7.336;2023-03-21T07:45:06;17.97;;;12.77;;
12288;SDS011;6207;49.308;7.336;2023-03-21T07:47:34;15.97;;;14.17;;
12288;SDS011;6207;49.308;7.336;2023-03-21T07:50:02;13.10;;;11.90;;
12288;SDS011;6207;49.308;7.336;2023-03-21T07:52:29;12.87;;;11.80;;
12288;SDS011;6207;49.308;7.336;2023-03-21T07:54:56;12.60;;;11.30;;
12288;SDS011;6207;49.308;7.336;2023-03-21T07:57:23;11.77;;;10.80;;
12288;SDS011;6207;49.308;7.336;2023-03-21T07:59:50;12.03;;;10.93;;
12288;SDS011;6207;49.308;7.336;2023-03-21T08:02:17;12.03;;;10.93;;
12288;SDS011;6207;49.308;7.336;2023-03-21T08:04:44;14.13;;;11.17;;
12288;SDS011;6207;49.308;7.336;2023-03-21T08:07:11;12.67;;;11.53;;
12288;SDS011;6207;49.308;7.336;2023-03-21T08:09:37;11.40;;;10.47;;
12288;SDS011;6207;49.308;7.336;2023-03-21T08:12:04;12.47;;;11.40;;
12288;SDS011;6207;49.308;7.336;2023-03-21T08:14:33;12.50;;;11.40;;
12288;SDS011;6207;49.308;7.336;2023-03-21T08:17:02;13.53;;;12.40;;
12288;SDS011;6207;49.308;7.336;2023-03-21T08:19:30;13.00;;;12.00;;
12288;SDS011;6207;49.308;7.336;2023-03-21T08:21:57;13.77;;;12.67;;
12288;SDS011;6207;49.308;7.336;2023-03-21T08:24:27;13.57;;;12.40;;
12288;SDS011;6207;49.308;7.336;2023-03-21T08:26:55;13.27;;;12.13;;
12288;SDS011;6207;49.308;7.336;2023-03-21T08:29:22;13.13;;;11.80;;
12288;SDS011;6207;49.308;7.336;2023-03-21T08:31:50;13.00;;;12.10;;
12288;SDS011;6207;49.308;7.336;2023-03-21T08:34:16;12.10;;;11.20;;
12288;SDS011;6207;49.308;7.336;2023-03-21T08:36:44;12.60;;;11.63;;
12288;SDS011;6207;49.308;7.336;2023-03-21T08:39:12;12.27;;;11.47;;
12288;SDS011;6207;49.308;7.336;2023-03-21T08:41:39;12.23;;;11.23;;
12288;SDS011;6207;49.308;7.336;2023-03-21T08:44:05;12.07;;;11.03;;
12288;SDS011;6207;49.308;7.336;2023-03-21T08:46:32;12.20;;;11.30;;
12288;SDS011;6207;49.308;7.336;2023-03-21T08:48:59;12.50;;;11.60;;
12288;SDS011;6207;49.308;7.336;2023-03-21T08:51:26;12.30;;;11.50;;
12288;SDS011;6207;49.308;7.336;2023-03-21T08:53:53;12.53;;;11.63;;
12288;SDS011;6207;49.308;7.336;2023-03-21T08:56:19;12.53;;;11.50;;
12288;SDS011;6207;49.308;7.336;2023-03-21T08:58:46;12.97;;;11.63;;
12288;SDS011;6207;49.308;7.336;2023-03-21T09:01:14;16.30;;;11.80;;
12288;SDS011;6207;49.308;7.336;2023-03-21T09:03:41;12.60;;;11.80;;
12288;SDS011;6207;49.308;7.336;2023-03-21T09:06:09;11.27;;;10.57;;
12288;SDS011;6207;49.308;7.336;2023-03-21T09:08:39;11.43;;;10.73;;
12288;SDS011;6207;49.308;7.336;2023-03-21T09:11:07;12.27;;;11.37;;
12288;SDS011;6207;49.308;7.336;2023-03-21T09:13:35;11.93;;;11.23;;
12288;SDS011;6207;49.308;7.336;2023-03-21T09:16:02;12.40;;;11.60;;
12288;SDS011;6207;49.308;7.336;2023-03-21T09:18:30;12.63;;;11.83;;
12288;SDS011;6207;49.308;7.336;2023-03-21T09:21:14;12.63;;;11.73;;
12288;SDS011;6207;49.308;7.336;2023-03-21T09:23:43;12.97;;;12.00;;
12288;SDS011;6207;49.308;7.336;2023-03-21T09:26:11;13.40;;;12.50;;
12288;SDS011;6207;49.308;7.336;2023-03-21T09:28:39;12.60;;;11.80;;
12288;SDS011;6207;49.308;7.336;2023-03-21T09:31:06;13.17;;;12.20;;
12288;SDS011;6207;49.308;7.336;2023-03-21T09:33:37;12.90;;;12.10;;
12288;SDS011;6207;49.308;7.336;2023-03-21T09:36:06;13.03;;;12.20;;
12288;SDS011;6207;49.308;7.336;2023-03-21T09:38:40;12.57;;;11.60;;
12288;SDS011;6207;49.308;7.336;2023-03-21T09:41:10;13.50;;;12.60;;
12288;SDS011;6207;49.308;7.336;2023-03-21T09:43:53;13.07;;;12.17;;
12288;SDS011;6207;49.308;7.336;2023-03-21T09:50:32;12.70;;;11.90;;
12288;SDS011;6207;49.308;7.336;2023-03-21T09:55:20;13.43;;;12.40;;
12288;SDS011;6207;49.308;7.336;2023-03-21T09:58:14;13.02;;;12.32;;
12288;SDS011;6207;49.308;7.336;2023-03-21T10:00:47;13.13;;;12.25;;
12288;SDS011;6207;49.308;7.336;2023-03-21T10:03:23;13.20;;;12.48;;
12288;SDS011;6207;49.308;7.336;2023-03-21T10:05:56;13.48;;;12.60;;
12288;SDS011;6207;49.308;7.336;2023-03-21T10:08:27;13.35;;;12.60;;
12288;SDS011;6207;49.308;7.336;2023-03-21T10:11:38;13.40;;;12.70;;
12288;SDS011;6207;49.308;7.336;2023-03-21T10:14:02;13.63;;;12.82;;
12288;SDS011;6207;49.308;7.336;2023-03-21T10:16:42;14.02;;;13.20;;
12288;SDS011;6207;49.308;7.336;2023-03-21T10:19:14;13.23;;;12.40;;
12288;SDS011;6207;49.308;7.336;2023-03-21T10:21:45;13.82;;;13.00;;
12288;SDS011;6207;49.308;7.336;2023-03-21T10:24:26;12.55;;;11.85;;
12288;SDS011;6207;49.308;7.336;2023-03-21T10:26:54;12.82;;;12.13;;
12288;SDS011;6207;49.308;7.336;2023-03-21T10:29:26;12.45;;;11.75;;
12288;SDS011;6207;49.308;7.336;2023-03-21T10:31:55;13.05;;;12.35;;
12288;SDS011;6207;49.308;7.336;2023-03-21T10:37:00;13.57;;;12.73;;
12288;SDS011;6207;49.308;7.336;2023-03-21T10:39:33;13.30;;;12.60;;
12288;SDS011;6207;49.308;7.336;2023-03-21T10:42:05;13.07;;;12.38;;
12288;SDS011;6207;49.308;7.336;2023-03-21T10:44:36;13.02;;;12.32;;
12288;SDS011;6207;49.308;7.336;2023-03-21T10:47:07;13.40;;;12.60;;
12288;SDS011;6207;49.308;7.336;2023-03-21T10:49:35;13.50;;;12.60;;
12288;SDS011;6207;49.308;7.336;2023-03-21T10:52:25;13.02;;;12.25;;
12288;SDS011;6207;49.308;7.336;2023-03-21T10:55:04;13.30;;;12.40;;
12288;SDS011;6207;49.308;7.336;2023-03-21T10:57:33;13.80;;;12.80;;
12288;SDS011;6207;49.308;7.336;2023-03-21T11:00:03;13.65;;;12.85;;
12288;SDS011;6207;49.308;7.336;2023-03-21T11:02:42;13.45;;;12.52;;
12288;SDS011;6207;49.308;7.336;2023-03-21T11:05:22;13.95;;;13.05;;
12288;SDS011;6207;49.308;7.336;2023-03-21T11:07:55;13.23;;;12.43;;
12288;SDS011;6207;49.308;7.336;2023-03-21T11:10:29;13.75;;;12.77;;
12288;SDS011;6207;49.308;7.336;2023-03-21T11:13:06;13.63;;;12.73;;
12288;SDS011;6207;49.308;7.336;2023-03-21T11:15:48;13.70;;;12.55;;
12288;SDS011;6207;49.308;7.336;2023-03-21T11:18:20;13.40;;;12.60;;
12288;SDS011;6207;49.308;7.336;2023-03-21T11:21:05;13.17;;;12.37;;
12288;SDS011;6207;49.308;7.336;2023-03-21T11:23:34;13.75;;;12.65;;
12288;SDS011;6207;49.308;7.336;2023-03-21T11:26:19;13.30;;;12.50;;
12288;SDS011;6207;49.308;7.336;2023-03-21T11:28:55;13.83;;;12.83;;
12288;SDS011;6207;49.308;7.336;2023-03-21T11:31:35;13.27;;;12.40;;
12288;SDS011;6207;49.308;7.336;2023-03-21T11:34:06;13.67;;;12.87;;
12288;SDS011;6207;49.308;7.336;2023-03-21T11:36:35;14.17;;;13.17;;
12288;SDS011;6207;49.308;7.336;2023-03-21T11:41:36;14.13;;;13.30;;
12288;SDS011;6207;49.308;7.336;2023-03-21T11:44:08;13.23;;;12.32;;
12288;SDS011;6207;49.308;7.336;2023-03-21T11:46:53;13.70;;;12.85;;
12288;SDS011;6207;49.308;7.336;2023-03-21T11:49:21;13.87;;;12.97;;
12288;SDS011;6207;49.308;7.336;2023-03-21T11:54:47;12.70;;;12.00;;
12288;SDS011;6207;49.308;7.336;2023-03-21T11:59:55;13.23;;;12.43;;
12288;SDS011;6207;49.308;7.336;2023-03-21T12:05:31;13.23;;;12.37;;
12288;SDS011;6207;49.308;7.336;2023-03-21T12:17:14;11.73;;;11.13;;
12288;SDS011;6207;49.308;7.336;2023-03-21T12:25:16;11.40;;;10.70;;
12288;SDS011;6207;49.308;7.336;2023-03-21T12:33:56;11.80;;;11.10;;
12288;SDS011;6207;49.308;7.336;2023-03-21T12:37:23;11.83;;;11.13;;
12288;SDS011;6207;49.308;7.336;2023-03-21T12:39:42;11.80;;;11.07;;
12288;SDS011;6207;49.308;7.336;2023-03-21T12:44:44;12.77;;;11.90;;
12288;SDS011;6207;49.308;7.336;2023-03-21T12:47:16;12.67;;;11.67;;
12288;SDS011;6207;49.308;7.336;2023-03-21T12:49:48;12.57;;;11.75;;
12288;SDS011;6207;49.308;7.336;2023-03-21T12:52:25;12.00;;;11.20;;
12288;SDS011;6207;49.308;7.336;2023-03-21T12:55:01;12.23;;;11.38;;
12288;SDS011;6207;49.308;7.336;2023-03-21T12:57:43;12.93;;;12.02;;
12288;SDS011;6207;49.308;7.336;2023-03-21T13:00:54;13.25;;;12.45;;
12288;SDS011;6207;49.308;7.336;2023-03-21T13:03:30;13.10;;;12.10;;
12288;SDS011;6207;49.308;7.336;2023-03-21T13:06:08;12.80;;;12.00;;
12288;SDS011;6207;49.308;7.336;2023-03-21T13:08:40;12.77;;;11.98;;
12288;SDS011;6207;49.308;7.336;2023-03-21T13:11:13;13.35;;;12.50;;
12288;SDS011;6207;49.308;7.336;2023-03-21T13:19:00;12.95;;;12.05;;
12288;SDS011;6207;49.308;7.336;2023-03-21T13:21:43;13.50;;;12.70;;
12288;SDS011;6207;49.308;7.336;2023-03-21T13:26:59;12.73;;;11.93;;
12288;SDS011;6207;49.308;7.336;2023-03-21T13:29:46;12.70;;;12.00;;
12288;SDS011;6207;49.308;7.336;2023-03-21T13:32:24;13.03;;;12.20;;
12288;SDS011;6207;49.308;7.336;2023-03-21T13:35:02;12.83;;;11.93;;
12288;SDS011;6207;49.308;7.336;2023-03-21T13:37:31;12.60;;;11.83;;
12288;SDS011;6207;49.308;7.336;2023-03-21T13:40:04;12.63;;;11.83;;
12288;SDS011;6207;49.308;7.336;2023-03-21T13:42:41;12.90;;;12.10;;
12288;SDS011;6207;49.308;7.336;2023-03-21T13:45:20;12.70;;;11.80;;
12288;SDS011;6207;49.308;7.336;2023-03-21T13:48:24;12.50;;;11.70;;
12288;SDS011;6207;49.308;7.336;2023-03-21T13:51:01;12.83;;;11.93;;
12288;SDS011;6207;49.308;7.336;2023-03-21T13:53:31;12.70;;;11.90;;
12288;SDS011;6207;49.308;7.336;2023-03-21T14:01:27;12.53;;;11.63;;
12288;SDS011;6207;49.308;7.336;2023-03-21T14:06:56;12.03;;;11.43;;
12288;SDS011;6207;49.308;7.336;2023-03-21T14:09:49;12.80;;;12.00;;
12288;SDS011;6207;49.308;7.336;2023-03-21T14:12:16;13.07;;;12.27;;
12288;SDS011;6207;49.308;7.336;2023-03-21T14:14:46;13.23;;;12.43;;
12288;SDS011;6207;49.308;7.336;2023-03-21T14:17:32;12.57;;;11.73;;
12288;SDS011;6207;49.308;7.336;2023-03-21T14:20:01;13.07;;;12.33;;
12288;SDS011;6207;49.308;7.336;2023-03-21T14:22:40;13.27;;;12.37;;
12288;SDS011;6207;49.308;7.336;2023-03-21T14:25:10;13.03;;;12.13;;
12288;SDS011;6207;49.308;7.336;2023-03-21T14:27:40;13.07;;;12.25;;
12288;SDS011;6207;49.308;7.336;2023-03-21T14:30:10;12.75;;;11.95;;
12288;SDS011;6207;49.308;7.336;2023-03-21T14:36:04;13.03;;;12.13;;
12288;SDS011;6207;49.308;7.336;2023-03-21T14:38:42;12.85;;;12.05;;
12288;SDS011;6207;49.308;7.336;2023-03-21T14:41:22;12.80;;;11.70;;
12288;SDS011;6207;49.308;7.336;2023-03-21T14:44:52;12.90;;;12.10;;
12288;SDS011;6207;49.308;7.336;2023-03-21T14:47:22;13.13;;;12.33;;
12288;SDS011;6207;49.308;7.336;2023-03-21T14:49:51;12.75;;;11.95;;
12288;SDS011;6207;49.308;7.336;2023-03-21T14:52:26;13.27;;;12.37;;
12288;SDS011;6207;49.308;7.336;2023-03-21T14:54:56;12.90;;;12.10;;
12288;SDS011;6207;49.308;7.336;2023-03-21T14:57:26;12.73;;;12.02;;
12288;SDS011;6207;49.308;7.336;2023-03-21T14:59:57;12.57;;;11.87;;
12288;SDS011;6207;49.308;7.336;2023-03-21T15:02:29;12.70;;;11.90;;
12288;SDS011;6207;49.308;7.336;2023-03-21T15:07:52;12.70;;;12.00;;
12288;SDS011;6207;49.308;7.336;2023-03-21T15:10:19;11.98;;;11.38;;
12288;SDS011;6207;49.308;7.336;2023-03-21T15:12:51;12.27;;;11.55;;
12288;SDS011;6207;49.308;7.336;2023-03-21T15:15:19;12.15;;;11.48;;
12288;SDS011;6207;49.308;7.336;2023-03-21T15:17:50;12.63;;;11.83;;
12288;SDS011;6207;49.308;7.336;2023-03-21T15:20:19;12.57;;;11.68;;
12288;SDS011;6207;49.308;7.336;2023-03-21T15:23:24;11.88;;;11.18;;
12288;SDS011;6207;49.308;7.336;2023-03-21T15:26:06;12.32;;;11.52;;
12288;SDS011;6207;49.308;7.336;2023-03-21T15:28:33;12.77;;;11.90;;
12288;SDS011;6207;49.308;7.336;2023-03-21T15:31:00;11.73;;;11.07;;
12288;SDS011;6207;49.308;7.336;2023-03-21T15:33:27;11.90;;;11.20;;
12288;SDS011;6207;49.308;7.336;2023-03-21T15:35:55;12.23;;;11.30;;
12288;SDS011;6207;49.308;7.336;2023-03-21T15:43:40;11.75;;;11.15;;
12288;SDS011;6207;49.308;7.336;2023-03-21T15:46:14;12.20;;;11.50;;
12288;SDS011;6207;49.308;7.336;2023-03-21T15:52:13;11.80;;;10.95;;
12288;SDS011;6207;49.308;7.336;2023-03-21T15:54:43;11.93;;;11.20;;
12288;SDS011;6207;49.308;7.336;2023-03-21T15:57:20;11.87;;;11.20;;
12288;SDS011;6207;49.308;7.336;2023-03-21T15:59:49;12.10;;;11.23;;
12288;SDS011;6207;49.308;7.336;2023-03-21T16:02:22;11.73;;;11.02;;
12288;SDS011;6207;49.308;7.336;2023-03-21T16:05:02;11.87;;;11.10;;
12288;SDS011;6207;49.308;7.336;2023-03-21T16:07:46;12.87;;;11.97;;
12288;SDS011;6207;49.308;7.336;2023-03-21T16:10:23;12.15;;;11.38;;
12288;SDS011;6207;49.308;7.336;2023-03-21T16:12:57;11.57;;;10.97;;
12288;SDS011;6207;49.308;7.336;2023-03-21T16:15:24;12.40;;;11.43;;
12288;SDS011;6207;49.308;7.336;2023-03-21T16:17:53;11.75;;;11.13;;
12288;SDS011;6207;49.308;7.336;2023-03-21T16:20:25;11.83;;;11.13;;
12288;SDS011;6207;49.308;7.336;2023-03-21T16:23:05;12.03;;;11.40;;
12288;SDS011;6207;49.308;7.336;2023-03-21T16:25:34;11.67;;;11.07;;
12288;SDS011;6207;49.308;7.336;2023-03-21T16:28:01;12.15;;;11.35;;
12288;SDS011;6207;49.308;7.336;2023-03-21T16:30:28;12.00;;;11.30;;
12288;SDS011;6207;49.308;7.336;2023-03-21T16:32:55;11.40;;;10.80;;
12288;SDS011;6207;49.308;7.336;2023-03-21T16:35:23;13.10;;;12.07;;
12288;SDS011;6207;49.308;7.336;2023-03-21T16:37:51;11.90;;;11.20;;
12288;SDS011;6207;49.308;7.336;2023-03-21T16:40:23;12.23;;;11.47;;
12288;SDS011;6207;49.308;7.336;2023-03-21T16:42:54;12.07;;;11.37;;
12288;SDS011;6207;49.308;7.336;2023-03-21T16:45:21;11.87;;;11.17;;
12288;SDS011;6207;49.308;7.336;2023-03-21T16:47:48;11.97;;;11.37;;
12288;SDS011;6207;49.308;7.336;2023-03-21T16:52:54;11.53;;;10.93;;
12288;SDS011;6207;49.308;7.336;2023-03-21T16:55:21;11.40;;;10.80;;
12288;SDS011;6207;49.308;7.336;2023-03-21T16:57:49;12.03;;;11.33;;
12288;SDS011;6207;49.308;7.336;2023-03-21T17:00:21;11.90;;;11.20;;